createdAt,value
2022-08-22T00:00:02.829Z,6.90
2022-08-22T00:01:43.618Z,6.10
2022-08-22T00:02:53.053Z,11.40
2022-08-22T00:02:54.356Z,9.00
2022-08-22T00:02:55.559Z,6.40
2022-08-22T00:02:55.559Z,7.50
2022-08-22T00:02:56.263Z,12.30
2022-08-22T00:02:58.682Z,7.70
2022-08-22T00:03:10.808Z,8.80
2022-08-22T00:03:15.778Z,7.30
2022-08-22T00:04:44.678Z,6.70
2022-08-22T00:05:55.415Z,6.30
2022-08-22T00:07:39.165Z,6.40
2022-08-22T00:08:54.582Z,5.50
2022-08-22T00:10:58.550Z,6.30
2022-08-22T00:12:30.440Z,6.10
2022-08-22T00:14:01.526Z,6.30
2022-08-22T00:15:43.270Z,6.40
2022-08-22T00:17:31.902Z,6.20
2022-08-22T00:18:52.241Z,6.20
2022-08-22T00:20:03.241Z,5.20
2022-08-22T00:21:30.661Z,5.90
2022-08-22T00:22:51.549Z,6.00
2022-08-22T00:24:16.645Z,6.30
2022-08-22T00:25:32.275Z,5.70
2022-08-22T00:27:16.719Z,5.90
2022-08-22T00:28:26.128Z,6.00
2022-08-22T00:30:00.202Z,5.00
2022-08-22T00:31:30.722Z,5.60
2022-08-22T00:32:53.168Z,6.10
2022-08-22T00:34:18.964Z,5.30
2022-08-22T00:35:45.321Z,5.60
2022-08-22T00:37:18.520Z,5.10
2022-08-22T00:38:36.098Z,5.10
2022-08-22T00:40:21.243Z,5.40
2022-08-22T00:41:37.996Z,5.80
2022-08-22T00:43:21.775Z,5.50
2022-08-22T00:44:37.674Z,5.50
2022-08-22T00:46:19.471Z,4.80
2022-08-22T00:47:38.045Z,5.60
2022-08-22T00:49:05.091Z,5.80
2022-08-22T00:50:38.952Z,4.90
2022-08-22T00:51:50.792Z,4.90
2022-08-22T00:53:19.161Z,5.40
2022-08-22T00:54:35.040Z,4.70
2022-08-22T00:55:59.899Z,4.80
2022-08-22T00:57:17.031Z,4.90
2022-08-22T00:58:32.614Z,5.40
2022-08-22T01:00:06.094Z,5.60
2022-08-22T01:01:14.946Z,5.30
2022-08-22T01:03:03.498Z,5.10
2022-08-22T01:04:33.550Z,5.60
2022-08-22T01:06:05.521Z,4.90
2022-08-22T01:07:38.165Z,4.30
2022-08-22T01:09:00.754Z,4.20
2022-08-22T01:10:54.145Z,5.10
2022-08-22T01:12:19.140Z,4.90
2022-08-22T01:13:37.591Z,5.40
2022-08-22T01:15:05.338Z,4.90
2022-08-22T01:16:44.600Z,4.90
2022-08-22T01:18:07.392Z,4.80
2022-08-22T01:19:40.310Z,5.20
2022-08-22T01:20:56.503Z,5.40
2022-08-22T01:22:14.519Z,4.80
2022-08-22T01:23:43.016Z,4.50
2022-08-22T01:25:26.078Z,5.20
2022-08-22T01:26:51.943Z,4.00
2022-08-22T01:28:19.357Z,4.50
2022-08-22T01:29:55.104Z,4.50
2022-08-22T01:31:45.713Z,4.40
2022-08-22T01:33:28.716Z,4.90
2022-08-22T01:35:00.277Z,4.00
2022-08-22T01:36:29.887Z,4.90
2022-08-22T01:38:08.102Z,4.20
2022-08-22T01:39:52.050Z,4.80
2022-08-22T01:41:23.855Z,4.10
2022-08-22T01:42:34.605Z,4.30
2022-08-22T01:43:59.757Z,4.40
2022-08-22T01:45:22.388Z,4.80
2022-08-22T01:46:43.975Z,4.10
2022-08-22T01:48:07.962Z,4.50
2022-08-22T01:49:55.185Z,4.60
2022-08-22T01:51:29.094Z,4.80
2022-08-22T01:52:45.909Z,4.30
2022-08-22T01:54:11.166Z,5.00
2022-08-22T01:55:37.487Z,4.80
2022-08-22T01:56:47.916Z,4.00
2022-08-22T01:58:02.663Z,4.50
2022-08-22T01:59:11.246Z,4.50
2022-08-22T02:00:19.386Z,4.40
2022-08-22T02:01:53.910Z,4.50
2022-08-22T02:03:07.532Z,4.30
2022-08-22T02:04:39.387Z,4.30
2022-08-22T02:06:14.915Z,4.00
2022-08-22T02:07:58.726Z,4.40
2022-08-22T02:09:20.586Z,4.30
2022-08-22T02:10:51.412Z,4.50
2022-08-22T02:12:23.656Z,4.50
2022-08-22T02:13:49.842Z,4.40
2022-08-22T02:15:35.433Z,4.90
2022-08-22T02:17:01.592Z,4.20
2022-08-22T02:18:09.922Z,4.50
2022-08-22T02:20:01.914Z,4.50
2022-08-22T02:21:40.725Z,4.30
2022-08-22T02:23:19.591Z,4.30
2022-08-22T02:24:35.637Z,4.80
2022-08-22T02:26:05.032Z,3.50
2022-08-22T02:27:15.584Z,4.10
2022-08-22T02:28:35.241Z,4.20
2022-08-22T02:30:06.946Z,4.40
2022-08-22T02:31:26.757Z,4.20
2022-08-22T02:32:43.975Z,4.80
2022-08-22T02:34:02.145Z,4.60
2022-08-22T02:35:21.543Z,4.50
2022-08-22T02:37:07.668Z,4.40
2022-08-22T02:38:34.421Z,4.20
2022-08-22T02:40:10.233Z,4.60
2022-08-22T02:41:53.554Z,4.40
2022-08-22T02:43:40.817Z,3.40
2022-08-22T02:45:02.523Z,4.40
2022-08-22T02:46:31.709Z,4.80
2022-08-22T02:48:03.232Z,4.70
2022-08-22T02:49:13.267Z,3.90
2022-08-22T02:50:40.509Z,4.30
2022-08-22T02:52:16.733Z,4.60
2022-08-22T02:53:33.355Z,4.00
2022-08-22T02:54:55.658Z,4.10
2022-08-22T02:56:36.486Z,4.20
2022-08-22T02:58:03.609Z,3.70
2022-08-22T02:59:28.956Z,4.10
2022-08-22T03:00:56.402Z,4.20
2022-08-22T03:02:49.595Z,4.20
2022-08-22T03:04:35.302Z,4.10
2022-08-22T03:05:47.241Z,4.40
2022-08-22T03:07:07.912Z,4.40
2022-08-22T03:08:30.332Z,4.60
2022-08-22T03:10:19.235Z,4.80
2022-08-22T03:11:33.709Z,5.10
2022-08-22T03:13:14.867Z,4.20
2022-08-22T03:14:57.547Z,4.00
2022-08-22T03:16:12.746Z,4.00
2022-08-22T03:17:26.312Z,4.30
2022-08-22T03:19:13.235Z,4.50
2022-08-22T03:20:56.418Z,4.60
2022-08-22T03:22:50.301Z,3.70
2022-08-22T03:24:36.113Z,3.90
2022-08-22T03:26:07.567Z,4.00
2022-08-22T03:27:35.909Z,4.40
2022-08-22T03:28:59.124Z,4.40
2022-08-22T03:30:19.136Z,4.80
2022-08-22T03:31:29.748Z,4.60
2022-08-22T03:33:00.147Z,4.50
2022-08-22T03:34:27.648Z,4.50
2022-08-22T03:35:41.583Z,4.50
2022-08-22T03:37:18.412Z,4.10
2022-08-22T03:38:39.384Z,3.90
2022-08-22T03:40:17.664Z,3.90
2022-08-22T03:41:52.861Z,4.30
2022-08-22T03:43:12.787Z,4.10
2022-08-22T03:44:43.204Z,4.50
2022-08-22T03:46:11.684Z,4.70
2022-08-22T03:47:44.405Z,4.40
2022-08-22T03:48:57.947Z,4.50
2022-08-22T03:50:35.998Z,4.50
2022-08-22T03:51:59.853Z,4.70
2022-08-22T03:53:32.253Z,4.20
2022-08-22T03:54:53.950Z,4.10
2022-08-22T03:56:36.993Z,3.70
2022-08-22T03:58:27.999Z,4.30
2022-08-22T04:00:23.296Z,4.50
2022-08-22T04:02:42.094Z,4.60
2022-08-22T04:03:41.477Z,4.40
2022-08-22T04:05:21.511Z,4.20
2022-08-22T04:06:41.487Z,3.60
2022-08-22T04:08:11.265Z,4.90
2022-08-22T04:09:39.173Z,4.10
2022-08-22T04:10:50.491Z,4.60
2022-08-22T04:12:11.524Z,4.00
2022-08-22T04:13:39.878Z,4.10
2022-08-22T04:15:27.607Z,4.50
2022-08-22T04:17:07.189Z,4.30
2022-08-22T04:18:51.923Z,4.10
2022-08-22T04:20:04.286Z,4.30
2022-08-22T04:21:38.763Z,5.10
2022-08-22T04:23:41.064Z,4.90
2022-08-22T04:25:19.224Z,4.90
2022-08-22T04:26:58.359Z,4.40
2022-08-22T04:28:23.808Z,3.90
2022-08-22T04:29:45.959Z,4.30
2022-08-22T04:31:29.787Z,3.70
2022-08-22T04:32:45.935Z,4.20
2022-08-22T04:33:57.791Z,4.70
2022-08-22T04:35:09.135Z,4.60
2022-08-22T04:37:00.934Z,4.20
2022-08-22T04:38:31.956Z,4.00
2022-08-22T04:39:54.347Z,4.20
2022-08-22T04:41:30.254Z,4.50
2022-08-22T04:42:56.784Z,4.30
2022-08-22T04:44:27.118Z,3.90
2022-08-22T04:46:13.567Z,4.60
2022-08-22T04:47:38.358Z,4.90
2022-08-22T04:48:57.560Z,4.10
2022-08-22T04:50:25.275Z,4.30
2022-08-22T04:51:46.029Z,4.80
2022-08-22T04:53:21.732Z,5.00
2022-08-22T04:54:52.590Z,4.50
2022-08-22T04:56:31.652Z,4.40
2022-08-22T04:57:54.856Z,4.50
2022-08-22T04:59:10.467Z,4.50
2022-08-22T05:00:20.281Z,4.30
2022-08-22T05:02:01.366Z,4.80
2022-08-22T05:03:12.411Z,5.30
2022-08-22T05:04:36.948Z,5.00
2022-08-22T05:05:45.197Z,4.90
2022-08-22T05:07:07.535Z,4.90
2022-08-22T05:08:17.863Z,4.80
2022-08-22T05:09:29.269Z,4.30
2022-08-22T05:10:42.705Z,4.70
2022-08-22T05:11:56.077Z,4.00
2022-08-22T05:13:11.941Z,4.40
2022-08-22T05:14:25.837Z,5.00
2022-08-22T05:15:45.059Z,4.30
2022-08-22T05:16:53.817Z,5.10
2022-08-22T05:18:04.520Z,4.80
2022-08-22T05:19:37.567Z,5.10
2022-08-22T05:20:49.738Z,4.80
2022-08-22T05:21:56.994Z,4.20
2022-08-22T05:23:26.246Z,4.10
2022-08-22T05:24:41.790Z,4.70
2022-08-22T05:25:50.498Z,5.00
2022-08-22T05:26:58.688Z,4.90
2022-08-22T05:28:39.583Z,4.80
2022-08-22T05:29:49.844Z,5.00
2022-08-22T05:30:56.951Z,5.50
2022-08-22T05:32:13.277Z,4.00
2022-08-22T05:34:04.142Z,4.10
2022-08-22T05:35:11.938Z,5.40
2022-08-22T05:36:23.234Z,4.40
2022-08-22T05:37:46.463Z,5.20
2022-08-22T05:39:02.912Z,4.90
2022-08-22T05:40:10.930Z,4.60
2022-08-22T05:41:25.316Z,4.80
2022-08-22T05:42:34.800Z,4.70
2022-08-22T05:43:44.719Z,4.60
2022-08-22T05:44:52.155Z,4.70
2022-08-22T05:46:00.228Z,4.30
2022-08-22T05:47:26.147Z,3.90
2022-08-22T05:48:44.852Z,3.80
2022-08-22T05:50:03.536Z,4.50
2022-08-22T05:51:30.959Z,4.40
2022-08-22T05:53:02.196Z,5.00
2022-08-22T05:54:33.531Z,5.30
2022-08-22T05:56:14.806Z,4.40
2022-08-22T05:57:38.637Z,4.50
2022-08-22T05:59:08.220Z,4.20
2022-08-22T06:00:25.767Z,3.90
2022-08-22T06:01:38.006Z,4.40
2022-08-22T06:02:52.547Z,4.20
2022-08-22T06:04:53.358Z,5.30
2022-08-22T06:06:07.105Z,4.40
2022-08-22T06:07:24.237Z,4.40
2022-08-22T06:08:40.235Z,5.50
2022-08-22T06:09:51.287Z,4.20
2022-08-22T06:11:01.377Z,4.10
2022-08-22T06:12:59.975Z,4.00
2022-08-22T06:14:43.542Z,4.30
2022-08-22T06:15:56.654Z,5.40
2022-08-22T06:17:11.415Z,4.80
2022-08-22T06:18:22.037Z,4.20
2022-08-22T06:19:29.529Z,5.20
2022-08-22T06:21:02.082Z,4.40
2022-08-22T06:22:11.744Z,3.80
2022-08-22T06:23:34.206Z,4.30
2022-08-22T06:24:42.361Z,4.10
2022-08-22T06:25:50.895Z,3.90
2022-08-22T06:27:03.578Z,4.50
2022-08-22T06:28:19.353Z,3.90
2022-08-22T06:30:05.879Z,5.10
2022-08-22T06:31:24.944Z,4.00
2022-08-22T06:32:59.543Z,5.00
2022-08-22T06:34:13.591Z,3.60
2022-08-22T06:36:10.209Z,4.50
2022-08-22T06:37:27.818Z,4.00
2022-08-22T06:38:52.754Z,4.50
2022-08-22T06:40:03.815Z,4.70
2022-08-22T06:41:12.368Z,5.30
2022-08-22T06:42:26.239Z,5.00
2022-08-22T06:43:39.845Z,4.50
2022-08-22T06:45:01.585Z,4.60
2022-08-22T06:46:09.197Z,4.50
2022-08-22T06:47:19.595Z,4.70
2022-08-22T06:48:26.563Z,4.30
2022-08-22T06:49:34.670Z,4.00
2022-08-22T06:50:44.346Z,3.90
2022-08-22T06:51:52.409Z,4.10
2022-08-22T06:53:09.190Z,4.50
2022-08-22T06:54:25.142Z,4.20
2022-08-22T06:55:32.366Z,4.70
2022-08-22T06:56:49.013Z,3.80
2022-08-22T06:58:45.795Z,4.60
2022-08-22T06:59:55.720Z,4.30
2022-08-22T07:01:15.146Z,4.10
2022-08-22T07:02:30.018Z,4.60
2022-08-22T07:03:43.686Z,4.50
2022-08-22T07:04:55.100Z,4.40
2022-08-22T07:06:05.846Z,4.60
2022-08-22T07:07:13.927Z,4.20
2022-08-22T07:08:22.109Z,4.20
2022-08-22T07:09:36.442Z,5.20
2022-08-22T07:11:05.557Z,4.60
2022-08-22T07:12:20.110Z,5.00
2022-08-22T07:13:29.531Z,5.40
2022-08-22T07:14:51.221Z,4.90
2022-08-22T07:16:01.142Z,4.90
2022-08-22T07:17:11.054Z,4.90
2022-08-22T07:18:26.303Z,4.60
2022-08-22T07:19:35.845Z,4.40
2022-08-22T07:20:55.988Z,5.20
2022-08-22T07:22:13.308Z,4.80
2022-08-22T07:23:35.311Z,4.90
2022-08-22T07:24:47.392Z,5.10
2022-08-22T07:25:55.912Z,5.20
2022-08-22T07:27:29.720Z,5.10
2022-08-22T07:28:51.511Z,5.90
2022-08-22T07:30:17.337Z,5.40
2022-08-22T07:31:40.854Z,5.00
2022-08-22T07:33:25.944Z,4.80
2022-08-22T07:35:08.032Z,4.60
2022-08-22T07:36:23.311Z,4.90
2022-08-22T07:37:48.739Z,5.00
2022-08-22T07:39:33.641Z,4.90
2022-08-22T07:41:03.978Z,5.20
2022-08-22T07:42:19.915Z,5.20
2022-08-22T07:43:41.384Z,5.60
2022-08-22T07:45:01.575Z,5.00
2022-08-22T07:46:39.547Z,4.90
2022-08-22T07:48:26.175Z,4.70
2022-08-22T07:49:59.067Z,4.90
2022-08-22T07:51:15.010Z,4.60
2022-08-22T07:52:26.490Z,5.00
2022-08-22T07:53:41.829Z,4.80
2022-08-22T07:55:15.532Z,5.10
2022-08-22T07:56:28.064Z,5.20
2022-08-22T07:57:40.984Z,5.30
2022-08-22T07:58:49.969Z,5.00
2022-08-22T08:00:00.340Z,4.90
2022-08-22T08:01:12.026Z,4.60
2022-08-22T08:02:20.037Z,4.50
2022-08-22T08:03:29.201Z,4.40
2022-08-22T08:04:40.465Z,5.60
2022-08-22T08:05:48.915Z,5.70
2022-08-22T08:06:59.333Z,5.50
2022-08-22T08:08:15.527Z,6.30
2022-08-22T08:09:26.733Z,5.20
2022-08-22T08:10:38.564Z,5.40
2022-08-22T08:11:46.233Z,5.40
2022-08-22T08:13:02.554Z,4.70
2022-08-22T08:14:13.779Z,5.00
2022-08-22T08:15:24.275Z,4.30
2022-08-22T08:16:45.400Z,5.60
2022-08-22T08:18:01.619Z,5.20
2022-08-22T08:19:12.116Z,5.10
2022-08-22T08:20:22.625Z,5.50
2022-08-22T08:21:44.071Z,4.80
2022-08-22T08:22:51.411Z,6.40
2022-08-22T08:24:02.434Z,5.30
2022-08-22T08:25:09.515Z,5.60
2022-08-22T08:26:19.918Z,5.50
2022-08-22T08:27:50.474Z,5.50
2022-08-22T08:28:59.696Z,5.30
2022-08-22T08:30:20.379Z,5.80
2022-08-22T08:31:42.642Z,5.90
2022-08-22T08:32:59.619Z,5.50
2022-08-22T08:34:27.105Z,4.60
2022-08-22T08:35:42.401Z,5.50
2022-08-22T08:37:19.464Z,5.30
2022-08-22T08:38:29.369Z,6.70
2022-08-22T08:39:39.039Z,5.60
2022-08-22T08:41:01.609Z,6.00
2022-08-22T08:43:05.019Z,4.90
2022-08-22T08:44:31.900Z,5.00
2022-08-22T08:46:17.616Z,5.20
2022-08-22T08:47:49.003Z,5.00
2022-08-22T08:49:27.740Z,5.00
2022-08-22T08:50:51.927Z,6.30
2022-08-22T08:52:38.699Z,6.40
2022-08-22T08:54:01.601Z,6.40
2022-08-22T08:55:22.822Z,6.70
2022-08-22T08:57:02.246Z,6.10
2022-08-22T08:58:34.367Z,6.00
2022-08-22T09:00:27.222Z,6.00
2022-08-22T09:02:05.957Z,6.40
2022-08-22T09:03:51.491Z,6.00
2022-08-22T09:05:20.800Z,6.00
2022-08-22T09:07:02.437Z,6.70
2022-08-22T09:08:52.658Z,7.10
2022-08-22T09:10:29.638Z,6.30
2022-08-22T09:11:54.762Z,6.60
2022-08-22T09:13:15.292Z,6.60
2022-08-22T09:14:50.406Z,6.60
2022-08-22T09:16:04.439Z,6.60
2022-08-22T09:17:48.173Z,5.70
2022-08-22T09:19:05.563Z,6.40
2022-08-22T09:20:47.803Z,6.30
2022-08-22T09:22:14.564Z,6.90
2022-08-22T09:23:53.910Z,6.90
2022-08-22T09:25:30.799Z,6.90
2022-08-22T09:27:08.768Z,5.80
2022-08-22T09:28:44.692Z,6.40
2022-08-22T09:30:08.536Z,6.40
2022-08-22T09:31:33.020Z,6.40
2022-08-22T09:33:13.627Z,6.70
2022-08-22T09:34:50.065Z,7.10
2022-08-22T09:36:17.427Z,6.90
2022-08-22T09:37:30.244Z,6.00
2022-08-22T09:39:14.138Z,6.60
2022-08-22T09:40:29.946Z,5.40
2022-08-22T09:42:08.483Z,5.20
2022-08-22T09:43:23.127Z,5.70
2022-08-22T09:44:41.118Z,5.80
2022-08-22T09:46:29.458Z,6.20
2022-08-22T09:47:43.988Z,5.80
2022-08-22T09:49:25.024Z,5.70
2022-08-22T09:50:54.705Z,6.00
2022-08-22T09:52:14.526Z,6.60
2022-08-22T09:53:41.774Z,6.70
2022-08-22T09:55:40.258Z,7.50
2022-08-22T09:57:03.620Z,6.10
2022-08-22T09:58:27.892Z,6.70
2022-08-22T10:00:15.068Z,6.30
2022-08-22T10:01:56.201Z,7.30
2022-08-22T10:03:19.831Z,7.50
2022-08-22T10:04:55.701Z,7.20
2022-08-22T10:06:09.271Z,7.40
2022-08-22T10:07:22.422Z,6.80
2022-08-22T10:09:09.090Z,7.60
2022-08-22T10:10:37.758Z,6.40
2022-08-22T10:11:47.889Z,6.80
2022-08-22T10:13:17.349Z,6.60
2022-08-22T10:14:52.133Z,7.40
2022-08-22T10:15:59.998Z,6.80
2022-08-22T10:17:10.118Z,5.90
2022-08-22T10:18:23.113Z,7.90
2022-08-22T10:19:47.396Z,6.30
2022-08-22T10:21:38.856Z,5.90
2022-08-22T10:23:16.844Z,6.20
2022-08-22T10:25:00.130Z,6.60
2022-08-22T10:26:22.975Z,6.50
2022-08-22T10:27:42.654Z,6.70
2022-08-22T10:28:56.968Z,5.70
2022-08-22T10:30:10.009Z,6.50
2022-08-22T10:31:59.485Z,5.70
2022-08-22T10:33:21.179Z,6.70
2022-08-22T10:34:36.289Z,5.70
2022-08-22T10:36:17.000Z,6.70
2022-08-22T10:37:56.786Z,7.30
2022-08-22T10:39:11.508Z,6.90
2022-08-22T10:40:50.318Z,7.00
2022-08-22T10:42:11.288Z,6.80
2022-08-22T10:43:29.236Z,6.80
2022-08-22T10:44:42.913Z,6.90
2022-08-22T10:46:04.030Z,6.00
2022-08-22T10:47:20.830Z,6.30
2022-08-22T10:48:41.923Z,6.90
2022-08-22T10:50:00.633Z,7.70
2022-08-22T10:51:20.157Z,6.90
2022-08-22T10:52:33.768Z,7.60
2022-08-22T10:54:19.820Z,7.80
2022-08-22T10:55:30.535Z,7.20
2022-08-22T10:57:31.053Z,8.10
2022-08-22T10:58:57.405Z,9.10
2022-08-22T11:00:38.086Z,8.30
2022-08-22T11:02:34.125Z,7.80
2022-08-22T11:04:15.001Z,8.00
2022-08-22T11:05:50.864Z,8.60
2022-08-22T11:07:39.905Z,8.90
2022-08-22T11:09:06.897Z,8.50
2022-08-22T11:10:21.728Z,8.40
2022-08-22T11:11:44.645Z,8.00
2022-08-22T11:13:43.457Z,9.30
2022-08-22T11:15:26.191Z,9.10
2022-08-22T11:17:28.778Z,8.70
2022-08-22T11:19:15.311Z,8.90
2022-08-22T11:20:28.498Z,8.70
2022-08-22T11:21:59.394Z,8.70
2022-08-22T11:23:24.600Z,8.70
2022-08-22T11:25:11.398Z,8.50
2022-08-22T11:26:47.110Z,8.30
2022-08-22T11:28:18.557Z,8.70
2022-08-22T11:29:50.894Z,9.20
2022-08-22T11:31:11.861Z,9.70
2022-08-22T11:32:42.669Z,9.00
2022-08-22T11:34:22.265Z,9.10
2022-08-22T11:35:44.445Z,9.20
2022-08-22T11:36:57.926Z,8.80
2022-08-22T11:38:19.148Z,8.10
2022-08-22T11:40:02.186Z,8.60
2022-08-22T11:41:22.575Z,8.70
2022-08-22T11:43:10.661Z,9.10
2022-08-22T11:44:34.837Z,8.30
2022-08-22T11:45:53.291Z,8.30
2022-08-22T11:47:02.607Z,8.10
2022-08-22T11:48:19.089Z,7.80
2022-08-22T11:49:36.240Z,9.10
2022-08-22T11:50:57.117Z,9.20
2022-08-22T11:52:58.426Z,10.10
2022-08-22T11:54:11.581Z,9.10
2022-08-22T11:55:45.861Z,9.30
2022-08-22T11:56:56.581Z,8.90
2022-08-22T11:58:21.944Z,10.20
2022-08-22T12:00:07.695Z,8.60
2022-08-22T12:01:24.077Z,8.40
2022-08-22T12:02:43.448Z,9.00
2022-08-22T12:04:03.501Z,9.10
2022-08-22T12:05:47.383Z,9.30
2022-08-22T12:07:32.489Z,8.30
2022-08-22T12:08:50.719Z,8.70
2022-08-22T12:10:02.275Z,7.80
2022-08-22T12:11:31.637Z,8.80
2022-08-22T12:12:54.398Z,8.30
2022-08-22T12:14:20.201Z,7.90
2022-08-22T12:15:53.881Z,8.20
2022-08-22T12:17:50.969Z,9.20
2022-08-22T12:19:16.578Z,9.60
2022-08-22T12:20:48.811Z,9.30
2022-08-22T12:22:18.316Z,9.10
2022-08-22T12:23:53.776Z,9.20
2022-08-22T12:25:22.182Z,9.20
2022-08-22T12:26:30.856Z,9.30
2022-08-22T12:28:09.325Z,8.80
2022-08-22T12:29:44.580Z,9.00
2022-08-22T12:31:31.550Z,8.90
2022-08-22T12:33:07.218Z,8.80
2022-08-22T12:34:40.241Z,6.90
2022-08-22T12:36:04.816Z,8.00
2022-08-22T12:37:27.723Z,7.20
2022-08-22T12:38:45.505Z,7.90
2022-08-22T12:40:11.285Z,6.60
2022-08-22T12:41:56.726Z,7.20
2022-08-22T12:43:45.202Z,7.20
2022-08-22T12:45:04.168Z,7.40
2022-08-22T12:46:48.847Z,7.60
2022-08-22T12:48:19.307Z,8.30
2022-08-22T12:49:38.249Z,8.10
2022-08-22T12:51:34.019Z,7.70
2022-08-22T12:53:25.385Z,9.10
2022-08-22T12:54:57.216Z,9.00
2022-08-22T12:56:10.329Z,7.70
2022-08-22T12:57:43.687Z,8.00
2022-08-22T12:59:11.238Z,9.10
2022-08-22T13:00:26.868Z,8.90
2022-08-22T13:01:45.202Z,9.50
2022-08-22T13:03:17.054Z,9.20
2022-08-22T13:04:34.081Z,9.10
2022-08-22T13:05:42.943Z,9.40
2022-08-22T13:06:56.919Z,9.00
2022-08-22T13:08:12.588Z,9.00
2022-08-22T13:09:36.398Z,9.40
2022-08-22T13:10:59.627Z,8.90
2022-08-22T13:12:27.590Z,9.30
2022-08-22T13:13:42.667Z,8.80
2022-08-22T13:15:30.679Z,8.40
2022-08-22T13:16:49.096Z,7.80
2022-08-22T13:18:25.235Z,8.30
2022-08-22T13:19:33.866Z,8.00
2022-08-22T13:20:47.078Z,8.00
2022-08-22T13:22:10.376Z,8.40
2022-08-22T13:23:28.097Z,8.40
2022-08-22T13:24:39.512Z,8.30
2022-08-22T13:26:33.132Z,8.30
2022-08-22T13:27:50.967Z,8.40
2022-08-22T13:29:25.732Z,8.00
2022-08-22T13:30:45.088Z,7.90
2022-08-22T13:32:02.370Z,9.10
2022-08-22T13:33:13.892Z,8.70
2022-08-22T13:34:43.448Z,8.80
2022-08-22T13:36:11.690Z,8.70
2022-08-22T13:37:50.083Z,9.00
2022-08-22T13:39:23.740Z,7.30
2022-08-22T13:40:32.092Z,7.70
2022-08-22T13:41:51.873Z,8.90
2022-08-22T13:43:14.714Z,8.30
2022-08-22T13:44:31.244Z,8.80
2022-08-22T13:45:39.265Z,8.40
2022-08-22T13:47:12.963Z,9.10
2022-08-22T13:48:19.354Z,8.60
2022-08-22T13:50:10.933Z,9.60
2022-08-22T13:51:24.309Z,9.50
2022-08-22T13:53:10.339Z,9.00
2022-08-22T13:54:18.557Z,8.60
2022-08-22T13:55:51.852Z,7.90
2022-08-22T13:57:05.105Z,7.00
2022-08-22T13:58:43.689Z,7.70
2022-08-22T14:00:22.392Z,7.80
2022-08-22T14:01:41.002Z,9.50
2022-08-22T14:03:19.821Z,9.10
2022-08-22T14:04:35.886Z,8.90
2022-08-22T14:05:58.824Z,9.00
2022-08-22T14:07:53.037Z,8.80
2022-08-22T14:09:09.799Z,8.30
2022-08-22T14:10:28.678Z,9.00
2022-08-22T14:11:54.190Z,8.40
2022-08-22T14:13:28.831Z,9.00
2022-08-22T14:14:38.480Z,8.60
2022-08-22T14:15:49.358Z,8.60
2022-08-22T14:17:02.170Z,8.00
2022-08-22T14:18:30.483Z,9.00
2022-08-22T14:19:53.076Z,8.90
2022-08-22T14:21:43.942Z,8.70
2022-08-22T14:23:10.575Z,8.00
2022-08-22T14:24:25.718Z,8.50
2022-08-22T14:25:38.855Z,8.70
2022-08-22T14:26:57.816Z,8.20
2022-08-22T14:28:10.029Z,7.90
2022-08-22T14:29:19.366Z,8.30
2022-08-22T14:30:33.849Z,9.30
2022-08-22T14:31:42.875Z,10.10
2022-08-22T14:32:54.083Z,9.80
2022-08-22T14:34:20.513Z,8.90
2022-08-22T14:35:35.148Z,8.20
2022-08-22T14:37:24.178Z,8.50
2022-08-22T14:38:36.823Z,8.70
2022-08-22T14:39:59.147Z,9.60
2022-08-22T14:41:56.561Z,10.60
2022-08-22T14:43:22.464Z,9.70
2022-08-22T14:44:58.114Z,9.30
2022-08-22T14:46:10.611Z,10.00
2022-08-22T14:47:55.116Z,10.50
2022-08-22T14:49:31.438Z,10.30
2022-08-22T14:50:55.828Z,9.50
2022-08-22T14:52:19.668Z,10.60
2022-08-22T14:53:34.817Z,10.40
2022-08-22T14:54:42.775Z,10.70
2022-08-22T14:56:14.118Z,12.00
2022-08-22T14:57:26.762Z,9.50
2022-08-22T14:58:39.041Z,10.30
2022-08-22T14:59:50.285Z,10.80
2022-08-22T15:00:59.466Z,11.80
2022-08-22T15:02:30.987Z,10.60
2022-08-22T15:04:00.542Z,11.10
2022-08-22T15:05:37.992Z,10.40
2022-08-22T15:06:58.669Z,11.80
2022-08-22T15:08:09.217Z,11.10
2022-08-22T15:09:33.796Z,9.70
2022-08-22T15:10:43.166Z,10.00
2022-08-22T15:11:51.666Z,11.50
2022-08-22T15:13:03.497Z,10.90
2022-08-22T15:14:25.005Z,11.60
2022-08-22T15:15:55.003Z,13.20
2022-08-22T15:17:09.939Z,11.40
2022-08-22T15:18:29.264Z,11.50
2022-08-22T15:19:52.166Z,11.60
2022-08-22T15:21:24.735Z,11.30
2022-08-22T15:22:33.175Z,12.00
2022-08-22T15:23:47.132Z,11.70
2022-08-22T15:25:08.967Z,11.70
2022-08-22T15:26:25.615Z,9.60
2022-08-22T15:27:36.321Z,12.50
2022-08-22T15:28:52.374Z,11.40
2022-08-22T15:30:16.518Z,11.00
2022-08-22T15:31:31.672Z,11.50
2022-08-22T15:32:42.132Z,11.40
2022-08-22T15:33:49.830Z,11.90
2022-08-22T15:35:29.933Z,12.10
2022-08-22T15:37:07.715Z,11.80
2022-08-22T15:38:36.225Z,12.60
2022-08-22T15:40:08.370Z,12.20
2022-08-22T15:41:36.510Z,13.10
2022-08-22T15:42:47.778Z,11.80
2022-08-22T15:44:03.253Z,12.90
2022-08-22T15:45:36.064Z,12.80
2022-08-22T15:47:02.717Z,13.20
2022-08-22T15:48:14.892Z,13.30
2022-08-22T15:49:22.891Z,12.80
2022-08-22T15:50:39.197Z,12.40
2022-08-22T15:52:05.541Z,13.80
2022-08-22T15:53:25.563Z,12.80
2022-08-22T15:54:34.730Z,14.30
2022-08-22T15:56:07.306Z,14.40
2022-08-22T15:57:40.096Z,13.20
2022-08-22T15:58:51.378Z,12.60
2022-08-22T16:00:45.217Z,12.80
2022-08-22T16:02:00.984Z,14.40
2022-08-22T16:03:27.939Z,13.00
2022-08-22T16:04:50.528Z,13.10
2022-08-22T16:06:07.663Z,14.50
2022-08-22T16:07:52.960Z,13.10
2022-08-22T16:09:04.046Z,13.10
2022-08-22T16:10:25.445Z,13.90
2022-08-22T16:11:37.316Z,13.40
2022-08-22T16:12:47.380Z,14.70
2022-08-22T16:14:21.244Z,12.40
2022-08-22T16:15:57.181Z,13.20
2022-08-22T16:17:08.193Z,13.30
2022-08-22T16:18:43.967Z,12.90
2022-08-22T16:19:51.890Z,12.70
2022-08-22T16:21:00.612Z,13.10
2022-08-22T16:22:09.724Z,13.80
2022-08-22T16:23:17.863Z,12.80
2022-08-22T16:24:29.138Z,13.20
2022-08-22T16:25:51.569Z,12.70
2022-08-22T16:26:59.753Z,12.90
2022-08-22T16:28:15.028Z,13.30
2022-08-22T16:29:52.460Z,13.60
2022-08-22T16:31:01.339Z,13.90
2022-08-22T16:32:11.226Z,13.30
2022-08-22T16:33:52.939Z,13.10
2022-08-22T16:35:02.266Z,13.70
2022-08-22T16:36:46.075Z,14.50
2022-08-22T16:37:54.065Z,13.70
2022-08-22T16:39:02.636Z,12.50
2022-08-22T16:40:21.448Z,16.10
2022-08-22T16:41:38.545Z,14.70
2022-08-22T16:42:53.279Z,14.80
2022-08-22T16:44:31.649Z,13.90
2022-08-22T16:45:43.428Z,14.90
2022-08-22T16:47:18.557Z,14.30
2022-08-22T16:48:33.392Z,14.70
2022-08-22T16:49:57.477Z,14.50
2022-08-22T16:51:13.883Z,15.30
2022-08-22T16:52:27.770Z,14.40
2022-08-22T16:53:45.860Z,14.50
2022-08-22T16:55:01.896Z,16.20
2022-08-22T16:56:28.759Z,16.10
2022-08-22T16:58:06.387Z,15.20
2022-08-22T16:59:38.341Z,15.80
2022-08-22T17:00:57.715Z,15.90
2022-08-22T17:02:28.202Z,15.80
2022-08-22T17:03:43.500Z,12.70
2022-08-22T17:05:01.458Z,13.00
2022-08-22T17:06:38.635Z,15.30
2022-08-22T17:07:54.762Z,15.80
2022-08-22T17:09:38.540Z,16.50
2022-08-22T17:11:04.753Z,16.90
2022-08-22T17:12:33.607Z,16.30
2022-08-22T17:14:23.187Z,16.90
2022-08-22T17:16:13.959Z,16.90
2022-08-22T17:17:31.549Z,15.20
2022-08-22T17:19:15.239Z,16.90
2022-08-22T17:20:45.597Z,16.70
2022-08-22T17:22:04.699Z,15.20
2022-08-22T17:23:39.421Z,17.00
2022-08-22T17:25:11.396Z,16.90
2022-08-22T17:26:32.958Z,19.80
2022-08-22T17:27:44.638Z,14.70
2022-08-22T17:29:10.924Z,17.40
2022-08-22T17:30:56.374Z,16.10
2022-08-22T17:32:36.549Z,17.10
2022-08-22T17:33:51.643Z,18.10
2022-08-22T17:35:20.065Z,18.90
2022-08-22T17:37:00.574Z,18.60
2022-08-22T17:38:34.986Z,17.40
2022-08-22T17:40:23.292Z,17.20
2022-08-22T17:41:56.687Z,19.30
2022-08-22T17:43:33.693Z,18.50
2022-08-22T17:45:37.185Z,18.60
2022-08-22T17:46:57.905Z,18.50
2022-08-22T17:48:15.198Z,16.80
2022-08-22T17:50:30.100Z,18.10
2022-08-22T17:51:44.922Z,17.80
2022-08-22T17:52:54.132Z,17.80
2022-08-22T17:54:29.661Z,17.60
2022-08-22T17:56:02.104Z,16.50
2022-08-22T17:57:33.310Z,17.10
2022-08-22T17:59:16.043Z,18.30
2022-08-22T18:00:33.150Z,17.60
2022-08-22T18:02:01.712Z,17.60
2022-08-22T18:03:39.940Z,18.90
2022-08-22T18:04:52.299Z,18.50
2022-08-22T18:06:28.769Z,18.10
2022-08-22T18:08:00.020Z,18.00
2022-08-22T18:09:20.222Z,18.90
2022-08-22T18:10:58.262Z,16.50
2022-08-22T18:12:24.731Z,16.80
2022-08-22T18:13:39.282Z,16.40
2022-08-22T18:14:57.722Z,16.80
2022-08-22T18:16:29.485Z,17.60
2022-08-22T18:18:09.309Z,17.60
2022-08-22T18:19:48.424Z,18.40
2022-08-22T18:21:16.709Z,18.20
2022-08-22T18:22:47.500Z,19.00
2022-08-22T18:24:02.979Z,18.20
2022-08-22T18:25:23.629Z,18.30
2022-08-22T18:26:54.536Z,17.50
2022-08-22T18:28:27.222Z,16.70
2022-08-22T18:30:03.109Z,17.30
2022-08-22T18:31:38.188Z,17.10
2022-08-22T18:33:13.817Z,16.10
2022-08-22T18:35:04.312Z,20.00
2022-08-22T18:36:36.882Z,18.50
2022-08-22T18:38:19.408Z,17.20
2022-08-22T18:39:57.021Z,15.10
2022-08-22T18:41:46.396Z,16.30